ADDS METAR Data INFO
IDs: Format: Raw Decoded Include TAF

Data at: 1248 UTC 19 Oct 2017

KGED 191154Z AUTO 00000KT 10SM CLR 07/06 A3029 RMK AO2 SLP259 T00720056 10083 20067 57000
KGED 191054Z AUTO 00000KT 10SM CLR 07/06 A3029 RMK AO2 SLP258 T00670056
KGED 190954Z AUTO 00000KT 10SM CLR 07/06 A3030 RMK AO2 SLP258 T00720056
KGED 190854Z AUTO 00000KT 10SM CLR 07/06 A3030 RMK AO2 SLP258 T00720056 55008
KGED 190754Z AUTO 00000KT 10SM CLR 08/06 A3029 RMK AO2 SLP257 T00780061
KGED 190654Z AUTO 00000KT 10SM CLR 08/07 A3031 RMK AO2 SLP262 T00830067
KGED 190554Z AUTO 00000KT 10SM CLR 08/07 A3032 RMK AO2 SLP266 T00830072 10128 20078 56007
KGED 190454Z AUTO 00000KT 10SM CLR 09/07 A3033 RMK AO2 SLP268 T00890072 402170033
KGED 190354Z AUTO 00000KT 10SM CLR 09/07 A3033 RMK AO2 SLP270 T00890072
KGED 190254Z AUTO 21003KT 10SM CLR 10/08 A3034 RMK AO2 SLP273 T01000083 50003
KGED 190154Z AUTO 00000KT 10SM CLR 10/08 A3035 RMK AO2 SLP275 T01000083
KGED 190054Z AUTO 00000KT 10SM CLR 11/08 A3034 RMK AO2 SLP273 T01110083
KGED 182354Z AUTO 17003KT 10SM CLR 11/08 A3033 RMK AO2 SLP270 T01110083 10217 20111 53007
KGED 182254Z AUTO 26004KT 10SM CLR 17/07 A3032 RMK AO2 SLP267 T01670072
KGED 182154Z AUTO 24004KT 10SM CLR 19/08 A3030 RMK AO2 SLP262 T01890078
KGED 182054Z AUTO 25004KT 10SM CLR 21/07 A3031 RMK AO2 SLP262 T02110067 58012
KGED 181954Z AUTO 21005KT 10SM CLR 21/07 A3032 RMK AO2 SLP267 T02110067
KGED 181854Z AUTO VRB06KT 10SM CLR 21/07 A3033 RMK AO2 SLP270 T02110067
KGED 181754Z AUTO VRB03KT 10SM CLR 21/06 A3034 RMK AO2 SLP274 T02060061 10206 20050 58017
KGED 181654Z AUTO 24005KT 10SM CLR 20/04 A3037 RMK AO2 SLP283 T02000044
KGED 181554Z AUTO VRB04KT 10SM CLR 18/07 A3039 RMK AO2 SLP290 T01830067
KGED 181454Z AUTO 31005KT 10SM CLR 16/06 A3039 RMK AO2 SLP291 T01610056 50005
KGED 181354Z AUTO 27003KT 10SM CLR 14/08 A3040 RMK AO2 SLP294 T01390078
KGED 181254Z AUTO 00000KT 10SM CLR 09/07 A3039 RMK AO2 SLP292 T00940072
KGED 181154Z AUTO 00000KT 10SM CLR 05/04 A3037 RMK AO2 SLP286 T00500039 10050 20033 51009
KGED 181054Z AUTO 00000KT 10SM CLR 03/02 A3037 RMK AO2 SLP285 T00330022
KGED 180954Z AUTO 00000KT 10SM CLR 04/03 A3036 RMK AO2 SLP280 T00390028
KGED 180854Z AUTO 00000KT 10SM CLR 04/03 A3035 RMK AO2 SLP276 T00390028 53003
KGED 180754Z AUTO 00000KT 10SM CLR 04/03 A3034 RMK AO2 SLP273 T00390028
KGED 180654Z AUTO 00000KT 10SM CLR 04/03 A3034 RMK AO2 SLP276 T00390028
KGED 180554Z AUTO 00000KT 10SM CLR 04/03 A3034 RMK AO2 SLP274 T00440028 10083 20039 56004
KGED 180454Z AUTO 00000KT 10SM CLR 04/03 A3035 RMK AO2 SLP276 T00440033 401610039
KGED 180354Z AUTO 00000KT 10SM CLR 05/04 A3034 RMK AO2 SLP275 T00500039
KGED 180254Z AUTO 00000KT 10SM CLR 06/04 A3035 RMK AO2 SLP278 T00560039 51009
KGED 180154Z AUTO 00000KT 10SM CLR 07/05 A3035 RMK AO2 SLP277 T00670050
KGED 180054Z AUTO 00000KT 10SM CLR 08/05 A3033 RMK AO2 SLP271 T00830050